Time;durP1;ratioP1;P1;durP2;ratioP2;P2;SDS_P1;SDS_P2;PMS_P1;PMS_P2;Temp;Humidity;BMP_temperature;BMP_pressure;BME280_temperature;BME280_humidity;BME280_pressure;Samples;Min_cycle;Max_cycle;Signal;HPM_P1;HPM_P2
2021/01/25 00:02:03;;;;;;;3.73;1.73;;;5.40;99.90;;;;;;5047014;28;20201;-86
2021/01/25 00:04:35;;;;;;;1.67;1.50;;;5.40;99.90;;;;;;5047685;28;20219;-87
2021/01/25 00:07:08;;;;;;;3.10;1.60;;;5.40;99.90;;;;;;5046919;28;20213;-87
2021/01/25 00:09:40;;;;;;;1.77;1.43;;;5.30;99.90;;;;;;5057155;28;20211;-86
2021/01/25 00:12:12;;;;;;;6.33;1.80;;;5.30;99.90;;;;;;5056355;28;20264;-87
2021/01/25 00:14:43;;;;;;;3.50;1.70;;;5.20;99.90;;;;;;5047582;28;20624;-87
2021/01/25 00:17:17;;;;;;;2.30;1.53;;;5.20;99.90;;;;;;5045352;28;20208;-87
2021/01/25 00:19:48;;;;;;;2.53;1.47;;;5.10;99.90;;;;;;5045722;28;20225;-85
2021/01/25 00:22:19;;;;;;;1.87;1.47;;;5.10;99.90;;;;;;5052673;28;20220;-86
2021/01/25 00:24:50;;;;;;;2.23;1.63;;;5.10;99.90;;;;;;5050292;28;20204;-86
2021/01/25 00:27:20;;;;;;;1.40;1.30;;;5.00;99.90;;;;;;5040543;28;20251;-86
2021/01/25 00:32:41;;;;;;;1.90;1.60;;;5.10;99.90;;;;;;5012392;28;20732;-87
2021/01/25 00:35:13;;;;;;;2.60;1.40;;;5.10;99.90;;;;;;5016538;28;20210;-88
2021/01/25 00:37:45;;;;;;;2.50;1.57;;;5.10;99.90;;;;;;5016518;28;20555;-86
2021/01/25 00:40:16;;;;;;;1.50;1.40;;;5.10;99.90;;;;;;5015931;28;20628;-87
2021/01/25 00:42:47;;;;;;;2.13;1.50;;;5.00;99.90;;;;;;5019576;28;20221;-87
2021/01/25 00:45:18;;;;;;;1.97;1.53;;;5.00;99.90;;;;;;5015700;28;20224;-87
2021/01/25 00:47:59;;;;;;;1.88;1.70;;;4.90;99.90;;;;;;4943596;28;10000839;-87
2021/01/25 00:50:29;;;;;;;2.13;1.77;;;4.90;99.90;;;;;;5013165;28;20232;-88
2021/01/25 00:53:00;;;;;;;3.83;2.10;;;4.80;99.90;;;;;;5015019;28;20240;-88
2021/01/25 00:55:30;;;;;;;2.30;1.47;;;4.80;99.90;;;;;;5014360;28;20248;-87
2021/01/25 00:58:01;;;;;;;3.20;1.80;;;4.90;99.90;;;;;;5014803;28;20206;-88
2021/01/25 01:00:32;;;;;;;2.90;2.00;;;4.80;99.90;;;;;;5013808;28;20237;-87
2021/01/25 01:03:04;;;;;;;2.40;2.03;;;4.80;99.90;;;;;;5015235;28;20194;-88
2021/01/25 01:05:36;;;;;;;2.63;1.90;;;4.80;99.90;;;;;;5017276;28;20206;-86
2021/01/25 01:08:07;;;;;;;2.23;2.00;;;4.70;99.90;;;;;;5015738;28;20213;-87
2021/01/25 01:10:37;;;;;;;3.03;1.70;;;4.70;99.90;;;;;;5016211;28;20205;-88
2021/01/25 01:13:09;;;;;;;3.57;2.10;;;4.70;99.90;;;;;;5016276;28;20217;-87
2021/01/25 01:15:41;;;;;;;3.53;2.10;;;4.70;99.90;;;;;;5015622;28;20264;-87
2021/01/25 01:18:15;;;;;;;4.03;1.83;;;4.70;99.90;;;;;;5013475;28;20209;-86
2021/01/25 01:20:47;;;;;;;2.90;2.37;;;4.70;99.90;;;;;;5056604;22;20711;-87
2021/01/25 01:23:18;;;;;;;5.50;2.43;;;4.80;99.90;;;;;;5035428;28;20247;-86
2021/01/25 01:25:49;;;;;;;4.40;2.67;;;4.70;99.90;;;;;;5034794;28;20197;-87
2021/01/25 01:28:19;;;;;;;3.73;2.43;;;4.70;99.90;;;;;;5036417;28;20193;-86
2021/01/25 01:30:51;;;;;;;3.30;2.33;;;4.60;99.90;;;;;;5042542;28;20201;-87
2021/01/25 01:33:23;;;;;;;2.47;1.80;;;4.60;99.90;;;;;;5045197;28;20208;-86
2021/01/25 01:35:54;;;;;;;3.20;2.60;;;4.60;99.90;;;;;;5043676;28;20213;-88
2021/01/25 01:38:26;;;;;;;3.07;2.50;;;4.50;99.90;;;;;;5048991;28;20228;-87
2021/01/25 01:40:59;;;;;;;4.37;3.23;;;4.50;99.90;;;;;;5029811;28;20222;-87
2021/01/25 01:43:30;;;;;;;5.07;2.90;;;4.40;99.90;;;;;;5045324;28;20278;-88
2021/01/25 01:46:01;;;;;;;3.87;2.80;;;4.40;99.90;;;;;;5037525;28;20311;-87
2021/01/25 01:48:33;;;;;;;6.30;3.10;;;4.40;99.90;;;;;;5046814;28;20236;-87
2021/01/25 01:51:04;;;;;;;7.73;3.40;;;4.30;99.90;;;;;;5050102;28;20326;-87
2021/01/25 01:53:36;;;;;;;4.30;3.53;;;4.30;99.90;;;;;;5054375;28;20193;-87
2021/01/25 01:56:08;;;;;;;3.43;3.00;;;4.20;99.90;;;;;;5053739;28;20213;-88
2021/01/25 01:58:38;;;;;;;3.87;2.37;;;4.20;99.90;;;;;;5035424;28;20224;-89
2021/01/25 02:01:10;;;;;;;3.43;2.17;;;4.00;99.90;;;;;;5053325;28;20327;-89
2021/01/25 02:03:47;;;;;;;1.90;1.60;;;4.00;99.90;;;;;;5049732;28;20208;-88
2021/01/25 02:06:19;;;;;;;2.33;1.50;;;3.90;99.90;;;;;;5046372;28;20209;-87
2021/01/25 02:08:51;;;;;;;2.13;1.80;;;3.90;99.90;;;;;;5053455;28;20205;-88
2021/01/25 02:11:27;;;;;;;2.37;1.70;;;3.80;99.90;;;;;;5051939;28;20251;-88
2021/01/25 02:14:01;;;;;;;2.60;2.00;;;3.70;99.90;;;;;;5052709;28;20234;-88
2021/01/25 02:16:42;;;;;;;2.90;1.93;;;3.70;99.90;;;;;;5137655;22;20239;-90
2021/01/25 02:19:20;;;;;;;2.00;1.80;;;3.70;99.90;;;;;;5028565;28;20206;-90
2021/01/25 02:21:57;;;;;;;3.13;1.90;;;3.70;99.90;;;;;;5024836;28;20915;-87
2021/01/25 02:24:37;;;;;;;3.20;1.90;;;3.70;99.90;;;;;;5030112;28;20221;-84
2021/01/25 02:27:35;;;;;;;2.13;1.80;;;3.70;99.90;;;;;;5034050;28;20616;-88
2021/01/25 02:30:08;;;;;;;2.80;1.80;;;3.70;99.90;;;;;;5035122;28;20247;-88
2021/01/25 02:32:41;;;;;;;2.30;2.10;;;3.60;99.90;;;;;;5027452;28;20214;-86
2021/01/25 02:35:16;;;;;;;1.97;1.77;;;3.70;99.90;;;;;;5024127;28;20240;-87
2021/01/25 02:37:48;;;;;;;2.03;1.40;;;3.70;99.90;;;;;;5033289;28;20254;-86
2021/01/25 02:40:20;;;;;;;2.23;1.97;;;3.60;99.90;;;;;;5049166;28;20243;-88
2021/01/25 02:42:55;;;;;;;2.67;1.93;;;3.60;99.90;;;;;;5027000;28;20208;-87
2021/01/25 02:45:26;;;;;;;2.20;2.00;;;3.60;99.90;;;;;;5031612;28;20191;-88
2021/01/25 02:47:57;;;;;;;3.83;1.70;;;3.60;99.90;;;;;;5026273;28;20274;-86
2021/01/25 02:50:28;;;;;;;2.43;2.20;;;3.60;99.90;;;;;;5029543;28;20389;-87
2021/01/25 02:53:03;;;;;;;2.37;2.00;;;3.60;99.90;;;;;;5032509;28;20281;-87
2021/01/25 02:55:33;;;;;;;2.80;2.17;;;3.60;99.90;;;;;;5035788;28;20219;-87
2021/01/25 02:58:07;;;;;;;2.13;1.90;;;3.60;99.90;;;;;;5025632;28;20202;-88
2021/01/25 03:00:38;;;;;;;2.07;1.83;;;3.60;99.90;;;;;;5028244;28;20287;-87
2021/01/25 03:03:09;;;;;;;2.57;1.93;;;3.60;99.90;;;;;;5031468;28;20240;-87
2021/01/25 03:05:46;;;;;;;2.17;1.97;;;3.60;99.90;;;;;;5013764;28;20213;-87
2021/01/25 03:08:21;;;;;;;3.80;1.87;;;3.60;99.90;;;;;;5028389;28;20206;-87
2021/01/25 03:10:53;;;;;;;3.53;2.60;;;3.60;99.90;;;;;;5027153;28;20284;-87
2021/01/25 03:13:31;;;;;;;2.20;2.00;;;3.60;99.90;;;;;;5031614;28;20268;-87
2021/01/25 03:16:05;;;;;;;2.00;1.50;;;3.60;99.90;;;;;;5040023;28;20239;-87
2021/01/25 03:18:38;;;;;;;2.40;1.70;;;3.60;99.90;;;;;;5036901;28;20239;-89
2021/01/25 03:21:10;;;;;;;1.67;1.57;;;3.50;99.90;;;;;;5031645;28;20222;-86
2021/01/25 03:23:49;;;;;;;2.40;1.60;;;3.50;99.90;;;;;;5031338;28;20206;-87
2021/01/25 03:26:20;;;;;;;2.07;1.80;;;3.40;99.90;;;;;;5033089;28;20206;-87
2021/01/25 03:28:53;;;;;;;1.50;1.40;;;3.30;99.90;;;;;;5032117;28;20289;-86
2021/01/25 03:31:24;;;;;;;2.10;1.90;;;3.30;99.90;;;;;;5013325;28;20606;-87
2021/01/25 03:33:55;;;;;;;2.17;1.80;;;3.30;99.90;;;;;;5009331;28;20214;-87
2021/01/25 03:39:01;;;;;;;2.17;1.97;;;3.30;99.90;;;;;;5724377;22;20229;-86
2021/01/25 03:41:32;;;;;;;2.37;2.17;;;3.30;99.90;;;;;;5033191;28;20256;-89
2021/01/25 03:44:04;;;;;;;2.50;2.30;;;3.20;99.90;;;;;;5032766;28;20190;-88
2021/01/25 03:46:35;;;;;;;2.50;2.10;;;3.30;99.90;;;;;;5032179;28;20205;-88
2021/01/25 03:51:50;;;;;;;3.30;2.40;;;3.20;99.90;;;;;;5033267;28;20509;-85
2021/01/25 03:54:21;;;;;;;2.03;1.77;;;3.30;99.90;;;;;;5031071;28;20228;-87
2021/01/25 03:56:52;;;;;;;2.27;1.70;;;3.10;99.90;;;;;;5027507;28;20225;-87
2021/01/25 03:59:25;;;;;;;2.40;2.13;;;3.10;99.90;;;;;;5029630;28;20264;-89
2021/01/25 04:01:56;;;;;;;2.13;1.93;;;3.00;99.90;;;;;;5027286;28;20260;-87
2021/01/25 04:04:27;;;;;;;2.20;2.00;;;3.00;99.90;;;;;;5027476;28;20279;-87
2021/01/25 04:06:58;;;;;;;2.13;1.93;;;2.90;99.90;;;;;;5028946;28;20332;-88
2021/01/25 04:09:29;;;;;;;1.70;1.57;;;2.90;99.90;;;;;;5028504;28;20225;-87
2021/01/25 04:12:00;;;;;;;1.93;1.77;;;2.90;99.90;;;;;;5029583;28;20268;-88
2021/01/25 04:14:34;;;;;;;2.50;2.30;;;2.90;99.90;;;;;;5031204;28;20296;-87
2021/01/25 04:17:05;;;;;;;3.33;2.10;;;2.90;99.90;;;;;;5031995;28;20216;-86
2021/01/25 04:19:37;;;;;;;3.43;2.83;;;3.00;99.90;;;;;;5031486;28;20204;-85
2021/01/25 04:22:08;;;;;;;3.03;1.80;;;3.00;99.90;;;;;;5011198;28;20396;-85
2021/01/25 04:24:38;;;;;;;2.13;1.57;;;3.10;99.90;;;;;;5023248;28;20277;-85
2021/01/25 04:27:11;;;;;;;2.60;1.60;;;3.10;99.90;;;;;;5020198;28;20220;-85
2021/01/25 04:29:43;;;;;;;1.40;1.30;;;3.10;99.90;;;;;;5028811;28;20204;-85
2021/01/25 04:32:13;;;;;;;1.93;1.43;;;3.10;99.90;;;;;;5028010;28;20233;-85
2021/01/25 04:34:45;;;;;;;1.40;1.30;;;3.10;99.90;;;;;;5029353;28;20229;-86
2021/01/25 04:37:15;;;;;;;1.43;1.30;;;3.20;99.90;;;;;;5034774;28;20240;-85
2021/01/25 04:39:46;;;;;;;2.30;1.50;;;3.20;99.90;;;;;;5023629;28;20202;-86
2021/01/25 04:42:17;;;;;;;2.43;1.60;;;3.20;99.90;;;;;;5016613;28;20234;-84
2021/01/25 04:44:51;;;;;;;3.37;1.60;;;3.20;99.90;;;;;;5014601;28;20233;-85
2021/01/25 04:47:25;;;;;;;2.13;1.13;;;3.30;99.90;;;;;;5030904;28;20235;-88
2021/01/25 04:49:56;;;;;;;2.13;1.60;;;3.10;99.90;;;;;;5019371;28;20229;-86
2021/01/25 04:52:28;;;;;;;1.80;1.60;;;3.10;99.90;;;;;;5027017;28;20265;-86
2021/01/25 04:54:59;;;;;;;1.50;1.40;;;3.20;99.90;;;;;;5027074;28;20265;-90
2021/01/25 04:57:31;;;;;;;1.70;1.23;;;3.30;99.90;;;;;;5031931;28;20240;-88
2021/01/25 05:00:07;;;;;;;2.10;1.00;;;3.30;99.90;;;;;;5032137;28;20201;-86
2021/01/25 05:02:39;;;;;;;2.30;1.10;;;3.30;99.90;;;;;;5012247;28;20213;-89
2021/01/25 05:05:11;;;;;;;1.67;1.20;;;3.30;99.90;;;;;;5027019;28;20277;-87
2021/01/25 05:07:41;;;;;;;1.37;1.10;;;3.30;99.90;;;;;;5025500;28;20233;-88
2021/01/25 05:10:14;;;;;;;1.43;1.27;;;3.30;99.90;;;;;;5032081;28;20261;-89
2021/01/25 05:12:47;;;;;;;2.97;1.27;;;3.20;99.90;;;;;;5033542;28;20282;-89
2021/01/25 05:15:31;;;;;;;2.63;0.97;;;3.30;99.90;;;;;;5033143;28;20198;-87
2021/01/25 05:18:04;;;;;;;1.60;1.20;;;3.30;99.90;;;;;;5032263;28;20192;-88
2021/01/25 05:20:35;;;;;;;2.10;1.00;;;3.40;99.90;;;;;;5031747;28;20268;-88
2021/01/25 05:23:17;;;;;;;0.90;0.90;;;3.40;99.90;;;;;;5032471;28;20213;-88
2021/01/25 05:25:48;;;;;;;1.07;0.87;;;3.40;99.90;;;;;;5028231;28;20244;-89
2021/01/25 05:28:21;;;;;;;1.40;1.07;;;3.40;99.90;;;;;;5027634;28;20617;-88
2021/01/25 05:30:53;;;;;;;1.00;0.90;;;3.50;99.90;;;;;;5027368;28;20197;-88
2021/01/25 05:33:28;;;;;;;1.00;0.97;;;3.50;99.90;;;;;;5026978;28;20215;-89
2021/01/25 05:35:59;;;;;;;1.30;1.20;;;3.40;99.90;;;;;;5026090;28;20213;-88
2021/01/25 05:38:34;;;;;;;1.57;1.10;;;3.50;99.90;;;;;;5026123;28;20236;-89
2021/01/25 05:41:07;;;;;;;1.20;1.10;;;3.40;99.90;;;;;;5020178;28;20228;-88
2021/01/25 05:43:38;;;;;;;1.70;1.20;;;3.40;99.90;;;;;;5026324;28;20864;-87
2021/01/25 05:46:13;;;;;;;1.53;1.07;;;3.40;99.90;;;;;;5029073;28;20247;-87
2021/01/25 05:48:44;;;;;;;1.57;1.20;;;3.40;99.90;;;;;;5019230;28;20201;-85
2021/01/25 05:51:17;;;;;;;1.40;1.30;;;3.40;99.90;;;;;;5026819;28;20220;-85
2021/01/25 05:53:48;;;;;;;1.07;0.97;;;3.50;99.90;;;;;;5025715;28;20220;-85
2021/01/25 05:56:21;;;;;;;2.20;1.03;;;3.50;99.90;;;;;;5028471;28;20213;-86
2021/01/25 05:58:51;;;;;;;3.20;1.40;;;3.50;99.90;;;;;;5022470;28;20228;-87
2021/01/25 06:01:24;;;;;;;1.60;1.17;;;3.50;99.90;;;;;;5021307;28;20233;-87
2021/01/25 06:03:57;;;;;;;2.23;1.40;;;3.40;99.90;;;;;;4672102;28;9999780;-88
2021/01/25 06:06:34;;;;;;;2.00;1.40;;;3.30;99.90;;;;;;5027402;28;20272;-86
2021/01/25 06:12:04;;;;;;;1.70;1.00;;;3.50;99.90;;;;;;5017913;28;20229;-87
2021/01/25 06:14:40;;;;;;;1.30;1.10;;;3.50;99.90;;;;;;5018952;28;20546;-87
2021/01/25 06:17:18;;;;;;;2.27;1.17;;;3.50;99.90;;;;;;5028013;28;20273;-88
2021/01/25 06:19:55;;;;;;;1.47;1.30;;;3.50;99.90;;;;;;5028419;28;20212;-87
2021/01/25 06:22:26;;;;;;;2.33;1.30;;;3.50;99.90;;;;;;5021226;28;20311;-86
2021/01/25 06:24:57;;;;;;;1.70;1.27;;;3.50;99.90;;;;;;5025405;28;20205;-87
2021/01/25 06:27:31;;;;;;;1.50;1.40;;;3.50;99.90;;;;;;5037471;28;20284;-88
2021/01/25 06:30:02;;;;;;;1.70;1.53;;;3.50;99.90;;;;;;5034789;28;20202;-87
2021/01/25 06:32:36;;;;;;;1.30;1.20;;;3.50;99.90;;;;;;5037838;28;20185;-87
2021/01/25 06:35:08;;;;;;;2.20;1.60;;;3.60;99.90;;;;;;5038629;28;20242;-86
2021/01/25 06:37:40;;;;;;;1.20;1.10;;;3.50;99.90;;;;;;5036937;28;20224;-88
2021/01/25 06:40:12;;;;;;;2.87;1.57;;;3.50;99.90;;;;;;5045066;28;20225;-87
2021/01/25 06:42:44;;;;;;;4.30;1.40;;;3.50;99.90;;;;;;5036503;28;20206;-86
2021/01/25 06:45:17;;;;;;;1.70;1.20;;;3.60;99.90;;;;;;5020994;28;20221;-87
2021/01/25 06:47:49;;;;;;;1.23;1.03;;;3.50;99.90;;;;;;5028047;28;20205;-85
2021/01/25 06:50:21;;;;;;;1.40;1.17;;;3.60;99.90;;;;;;5016369;28;20690;-85
2021/01/25 06:52:52;;;;;;;2.40;1.27;;;3.50;99.90;;;;;;5014572;28;20772;-87
2021/01/25 06:55:31;;;;;;;2.47;1.40;;;3.50;99.90;;;;;;5014669;28;20212;-87
2021/01/25 06:58:07;;;;;;;1.90;1.40;;;3.60;99.90;;;;;;5018922;28;20607;-87
2021/01/25 07:00:40;;;;;;;3.00;1.40;;;3.60;99.90;;;;;;5000790;28;20235;-87
2021/01/25 07:03:23;;;;;;;3.27;2.10;;;3.60;99.90;;;;;;5015277;28;20210;-87
2021/01/25 07:06:00;;;;;;;2.67;2.13;;;3.50;99.90;;;;;;5011621;28;20213;-86
2021/01/25 07:08:32;;;;;;;1.93;1.73;;;3.60;99.90;;;;;;5003214;28;20209;-86
2021/01/25 07:11:04;;;;;;;2.60;1.80;;;3.50;99.90;;;;;;5015998;28;20232;-86
2021/01/25 07:13:36;;;;;;;3.83;1.63;;;3.50;99.90;;;;;;5027532;28;20714;-86
2021/01/25 07:16:08;;;;;;;4.97;1.70;;;3.60;99.90;;;;;;5020297;28;20197;-86
2021/01/25 07:18:43;;;;;;;2.07;1.83;;;3.60;99.90;;;;;;5018912;28;20202;-86
2021/01/25 07:21:15;;;;;;;2.87;1.77;;;3.60;99.90;;;;;;5015859;28;20294;-86
2021/01/25 07:23:46;;;;;;;3.43;2.20;;;3.60;99.90;;;;;;5017310;28;20205;-85
2021/01/25 07:26:18;;;;;;;6.50;2.60;;;3.60;99.90;;;;;;5002690;28;20213;-86
2021/01/25 07:28:49;;;;;;;4.37;2.47;;;3.50;99.90;;;;;;5021066;28;20221;-87
2021/01/25 07:31:34;;;;;;;1.93;1.40;;;3.50;99.90;;;;;;5027763;28;20198;-85
2021/01/25 07:34:10;;;;;;;5.70;1.80;;;3.50;99.90;;;;;;5023098;28;20201;-87
2021/01/25 07:36:41;;;;;;;6.07;1.70;;;3.50;99.90;;;;;;5020758;28;20545;-86
2021/01/25 07:39:14;;;;;;;3.23;1.80;;;3.60;99.90;;;;;;5021851;28;20217;-86
2021/01/25 07:41:46;;;;;;;5.57;1.70;;;3.60;99.90;;;;;;5025352;28;20248;-88
2021/01/25 07:44:18;;;;;;;3.13;1.53;;;3.60;99.90;;;;;;5057478;22;20684;-87
2021/01/25 07:46:50;;;;;;;2.10;1.30;;;3.60;99.90;;;;;;5026157;28;20236;-87
2021/01/25 07:49:31;;;;;;;5.40;1.70;;;3.60;99.90;;;;;;5026006;28;20232;-86
2021/01/25 07:52:03;;;;;;;3.60;1.60;;;3.60;99.90;;;;;;5026039;28;20555;-88
2021/01/25 07:54:34;;;;;;;7.70;1.30;;;3.60;99.90;;;;;;5027867;28;20212;-88
2021/01/25 07:57:05;;;;;;;2.27;1.10;;;3.60;99.90;;;;;;5012513;28;20278;-87
2021/01/25 07:59:36;;;;;;;4.37;1.23;;;3.60;99.90;;;;;;5026981;28;20216;-87
2021/01/25 08:02:15;;;;;;;2.00;1.20;;;3.60;99.90;;;;;;5020004;28;20266;-87
2021/01/25 08:04:48;;;;;;;3.37;1.20;;;3.60;99.90;;;;;;5016751;28;20207;-87
2021/01/25 08:07:19;;;;;;;4.50;1.80;;;3.70;99.90;;;;;;5013782;28;20206;-89
2021/01/25 08:09:50;;;;;;;3.13;1.33;;;3.60;99.90;;;;;;5016608;28;20682;-88
2021/01/25 08:12:23;;;;;;;2.37;1.00;;;3.60;99.90;;;;;;5016611;28;20208;-86
2021/01/25 08:15:00;;;;;;;5.80;1.60;;;3.70;99.90;;;;;;5017123;28;20569;-86
2021/01/25 08:17:36;;;;;;;3.57;1.40;;;3.70;99.90;;;;;;5015442;28;20244;-86
2021/01/25 08:20:11;;;;;;;5.23;1.37;;;3.70;99.90;;;;;;5016108;28;20271;-87
2021/01/25 08:22:48;;;;;;;4.63;1.33;;;3.70;99.90;;;;;;5016256;28;20701;-87
2021/01/25 08:25:20;;;;;;;3.93;1.37;;;3.70;99.90;;;;;;5003408;28;20265;-88
2021/01/25 08:28:05;;;;;;;3.23;1.37;;;3.70;99.90;;;;;;5006796;28;20643;-88
2021/01/25 08:30:40;;;;;;;4.50;1.20;;;3.70;99.90;;;;;;5016353;28;20263;-88
2021/01/25 08:33:11;;;;;;;5.90;1.10;;;3.70;99.90;;;;;;5013627;28;20218;-88
2021/01/25 08:35:56;;;;;;;6.20;1.37;;;3.60;99.90;;;;;;5018039;28;20205;-88
2021/01/25 08:38:29;;;;;;;4.27;1.50;;;3.60;99.90;;;;;;5017343;28;20248;-88
2021/01/25 08:41:01;;;;;;;4.67;1.37;;;3.60;99.90;;;;;;5026524;28;20291;-89
2021/01/25 08:43:34;;;;;;;4.90;1.23;;;3.60;99.90;;;;;;5017609;28;20206;-88
2021/01/25 08:46:13;;;;;;;3.57;1.10;;;3.60;99.90;;;;;;5018837;28;20272;-88
2021/01/25 08:48:44;;;;;;;6.47;1.43;;;3.60;99.90;;;;;;5027819;28;20249;-87
2021/01/25 08:51:21;;;;;;;5.33;1.50;;;3.60;99.90;;;;;;5033554;28;20204;-86
2021/01/25 08:54:02;;;;;;;6.73;1.30;;;3.70;99.90;;;;;;5035349;28;20259;-88
2021/01/25 08:56:38;;;;;;;4.43;1.33;;;3.60;99.90;;;;;;5014706;28;20255;-88
2021/01/25 08:59:14;;;;;;;8.53;1.73;;;3.60;99.90;;;;;;5045212;28;20236;-88
2021/01/25 09:01:47;;;;;;;5.00;1.50;;;3.60;99.90;;;;;;5029507;28;20241;-87
2021/01/25 09:04:17;;;;;;;4.83;1.73;;;3.60;99.90;;;;;;5018975;28;20232;-88
2021/01/25 09:06:50;;;;;;;3.27;1.23;;;3.60;99.90;;;;;;5018838;28;20201;-87
2021/01/25 09:09:21;;;;;;;5.03;1.37;;;3.60;99.90;;;;;;5017142;28;20209;-87
2021/01/25 09:11:51;;;;;;;3.83;1.27;;;3.60;99.90;;;;;;5015401;28;20244;-88
2021/01/25 09:14:22;;;;;;;5.57;1.50;;;3.60;99.90;;;;;;5016620;28;20205;-87
2021/01/25 09:16:54;;;;;;;2.57;1.13;;;3.60;99.90;;;;;;5017001;28;20201;-86
2021/01/25 09:19:25;;;;;;;7.20;1.60;;;3.60;99.90;;;;;;5021544;28;20217;-87
2021/01/25 09:21:56;;;;;;;4.73;1.50;;;3.70;99.90;;;;;;5022480;28;20333;-87
2021/01/25 09:24:27;;;;;;;7.67;1.83;;;3.70;99.90;;;;;;5016140;28;20237;-88
2021/01/25 09:26:57;;;;;;;6.97;1.63;;;3.60;99.90;;;;;;5015629;28;20256;-87
2021/01/25 09:29:28;;;;;;;8.97;1.77;;;3.60;99.90;;;;;;5016121;28;20669;-88
2021/01/25 09:32:00;;;;;;;5.97;1.37;;;3.60;99.90;;;;;;5016514;28;20267;-88
2021/01/25 09:34:31;;;;;;;9.93;1.70;;;3.60;99.90;;;;;;5034740;28;20228;-88
2021/01/25 09:37:02;;;;;;;8.67;1.80;;;3.60;99.90;;;;;;5015558;28;20225;-87
2021/01/25 09:39:33;;;;;;;6.50;1.20;;;3.70;99.90;;;;;;5015426;28;20237;-89
2021/01/25 09:42:04;;;;;;;5.90;1.70;;;3.60;99.90;;;;;;5013468;28;20257;-88
2021/01/25 09:44:36;;;;;;;15.70;2.50;;;3.60;99.90;;;;;;5015046;28;20221;-88
2021/01/25 09:47:07;;;;;;;7.37;1.60;;;3.60;99.90;;;;;;5015378;28;20228;-87
2021/01/25 09:49:37;;;;;;;12.17;1.53;;;3.60;99.90;;;;;;5016208;28;20308;-88
2021/01/25 09:52:08;;;;;;;5.50;2.00;;;3.60;99.90;;;;;;5014845;28;20209;-88
2021/01/25 09:54:40;;;;;;;7.43;1.53;;;3.60;99.90;;;;;;5016754;28;20281;-89
2021/01/25 09:57:10;;;;;;;10.20;1.90;;;3.60;99.90;;;;;;5015896;28;20243;-86
2021/01/25 09:59:41;;;;;;;7.13;1.50;;;3.60;99.90;;;;;;5016946;28;20227;-88
2021/01/25 10:02:13;;;;;;;8.73;1.90;;;3.60;99.90;;;;;;5015603;28;20257;-87
2021/01/25 10:04:44;;;;;;;9.63;1.70;;;3.60;99.90;;;;;;5015736;28;20214;-86
2021/01/25 10:07:15;;;;;;;5.97;1.33;;;3.70;99.90;;;;;;5003846;28;20539;-88
2021/01/25 10:09:45;;;;;;;8.80;1.80;;;3.60;99.90;;;;;;5012990;28;20279;-87
2021/01/25 10:12:17;;;;;;;12.43;1.87;;;3.60;99.90;;;;;;5014136;28;20252;-88
2021/01/25 10:14:47;;;;;;;7.87;1.67;;;3.70;99.90;;;;;;5015125;28;20209;-88
2021/01/25 10:17:30;;;;;;;8.87;1.77;;;3.70;99.90;;;;;;5015861;28;20282;-89
2021/01/25 10:20:01;;;;;;;7.93;2.17;;;3.70;99.90;;;;;;5017031;28;20206;-92
2021/01/25 10:22:32;;;;;;;10.13;2.57;;;3.70;99.90;;;;;;4995758;28;20238;-88
2021/01/25 10:25:04;;;;;;;5.93;1.63;;;3.60;99.90;;;;;;5028197;28;20201;-90
2021/01/25 10:27:35;;;;;;;10.67;1.83;;;3.60;99.90;;;;;;5034640;28;20233;-89
2021/01/25 10:30:08;;;;;;;12.33;3.20;;;3.70;99.90;;;;;;5017899;28;20632;-89
2021/01/25 10:32:40;;;;;;;7.37;1.53;;;3.70;99.90;;;;;;5019205;28;20280;-88
2021/01/25 10:35:11;;;;;;;11.73;2.60;;;3.70;99.90;;;;;;5019213;28;20213;-88
2021/01/25 10:37:43;;;;;;;9.60;1.80;;;3.70;99.90;;;;;;5021430;28;20305;-88
2021/01/25 10:40:16;;;;;;;8.77;1.47;;;3.70;99.90;;;;;;5017110;28;20205;-90
2021/01/25 10:42:47;;;;;;;7.07;1.20;;;3.60;99.90;;;;;;5018841;28;20233;-89
2021/01/25 10:45:19;;;;;;;11.57;2.00;;;3.60;99.90;;;;;;5017257;28;20213;-88
2021/01/25 10:47:51;;;;;;;11.33;1.87;;;3.70;99.90;;;;;;5018672;28;20268;-89
2021/01/25 10:50:22;;;;;;;7.07;1.37;;;3.60;99.90;;;;;;5026252;28;20291;-89
2021/01/25 10:52:53;;;;;;;7.07;1.90;;;3.70;99.90;;;;;;5027121;28;20227;-89
2021/01/25 10:55:23;;;;;;;6.70;1.60;;;3.70;99.90;;;;;;5029912;28;20272;-89
2021/01/25 10:57:53;;;;;;;5.30;1.33;;;3.70;99.90;;;;;;5019085;28;20208;-89
2021/01/25 11:00:25;;;;;;;9.17;1.73;;;3.70;99.90;;;;;;5021114;28;20256;-88
2021/01/25 11:02:57;;;;;;;5.93;1.40;;;3.70;99.90;;;;;;5022497;28;20240;-88
2021/01/25 11:05:28;;;;;;;11.23;1.80;;;3.70;99.90;;;;;;5024075;28;20233;-88
2021/01/25 11:07:59;;;;;;;8.67;1.40;;;3.70;99.90;;;;;;5025598;28;20224;-89
2021/01/25 11:10:30;;;;;;;7.03;1.70;;;3.70;99.90;;;;;;5021347;28;20280;-88
2021/01/25 11:13:01;;;;;;;8.03;1.50;;;3.70;99.90;;;;;;5020226;28;20612;-87
2021/01/25 11:15:32;;;;;;;11.50;1.57;;;3.70;99.90;;;;;;5018843;28;20205;-87
2021/01/25 11:18:05;;;;;;;9.80;1.60;;;3.70;99.90;;;;;;5017973;28;20206;-87
2021/01/25 11:20:35;;;;;;;8.77;1.53;;;3.70;99.90;;;;;;5012589;28;20228;-86
2021/01/25 11:23:06;;;;;;;9.97;1.83;;;3.80;99.90;;;;;;5001447;28;20697;-87
2021/01/25 11:25:37;;;;;;;12.73;1.80;;;3.80;99.90;;;;;;5017676;28;20202;-86
2021/01/25 11:28:08;;;;;;;11.87;1.90;;;3.70;99.90;;;;;;5017278;28;20206;-88
2021/01/25 11:30:39;;;;;;;13.23;1.90;;;3.80;99.90;;;;;;5016672;28;20233;-88
2021/01/25 11:33:11;;;;;;;9.17;1.77;;;3.80;99.90;;;;;;5016120;28;20217;-87
2021/01/25 11:35:43;;;;;;;6.37;1.40;;;3.80;99.90;;;;;;5017407;28;20232;-88
2021/01/25 11:38:13;;;;;;;5.87;1.50;;;3.80;99.90;;;;;;5017396;28;20236;-87
2021/01/25 11:40:44;;;;;;;6.13;1.10;;;3.80;99.90;;;;;;5009777;28;20241;-87
2021/01/25 11:43:15;;;;;;;7.87;1.40;;;3.80;99.90;;;;;;5013880;28;20328;-86
2021/01/25 11:45:50;;;;;;;8.17;1.50;;;3.80;99.90;;;;;;5015579;28;20221;-89
2021/01/25 11:48:21;;;;;;;8.00;1.40;;;3.80;99.90;;;;;;5007541;28;20236;-90
2021/01/25 11:50:52;;;;;;;6.93;1.60;;;3.80;99.90;;;;;;4995292;28;20210;-88
2021/01/25 11:53:23;;;;;;;8.07;1.33;;;3.80;99.90;;;;;;5002615;28;20232;-88
2021/01/25 11:55:54;;;;;;;7.70;1.50;;;3.80;99.90;;;;;;5016960;28;20233;-87
2021/01/25 11:58:25;;;;;;;7.93;1.40;;;3.80;99.90;;;;;;5022478;28;20206;-88
2021/01/25 12:00:56;;;;;;;8.93;1.57;;;3.80;99.90;;;;;;5014381;28;20651;-88
2021/01/25 12:03:27;;;;;;;8.17;1.40;;;3.80;99.90;;;;;;5017935;28;20329;-89
2021/01/25 12:05:58;;;;;;;6.30;1.80;;;3.70;99.90;;;;;;5017142;28;20240;-88
2021/01/25 12:08:29;;;;;;;8.67;1.37;;;3.70;99.90;;;;;;5017693;28;20252;-87
2021/01/25 12:11:00;;;;;;;4.60;1.50;;;3.70;99.90;;;;;;5016759;28;20320;-89
2021/01/25 12:13:31;;;;;;;10.27;1.83;;;3.70;99.90;;;;;;5018178;28;20202;-88
2021/01/25 12:16:01;;;;;;;7.60;1.30;;;3.70;99.90;;;;;;5016956;28;20315;-88
2021/01/25 12:18:33;;;;;;;4.00;1.30;;;3.70;99.90;;;;;;5016381;28;20232;-89
2021/01/25 12:21:04;;;;;;;8.27;1.70;;;3.70;99.90;;;;;;5018108;28;20229;-89
2021/01/25 12:23:36;;;;;;;5.93;1.30;;;3.70;99.90;;;;;;5017052;28;20256;-89
2021/01/25 12:26:07;;;;;;;8.97;1.60;;;3.70;99.90;;;;;;4998882;28;20627;-89
2021/01/25 12:28:38;;;;;;;6.63;1.37;;;3.70;99.90;;;;;;4999052;28;20230;-88
2021/01/25 12:31:08;;;;;;;10.07;1.57;;;3.70;99.90;;;;;;5000146;28;20210;-90
2021/01/25 12:33:41;;;;;;;9.17;1.63;;;3.70;99.90;;;;;;4998296;28;20233;-88
2021/01/25 12:36:12;;;;;;;6.63;1.30;;;3.70;99.90;;;;;;5010299;28;20210;-89
2021/01/25 12:38:43;;;;;;;3.63;1.10;;;3.70;99.90;;;;;;5016996;28;20226;-88
2021/01/25 12:41:14;;;;;;;5.17;1.63;;;3.70;99.90;;;;;;5016621;28;20681;-89
2021/01/25 12:43:44;;;;;;;7.40;1.50;;;3.70;99.90;;;;;;5016397;28;20238;-89
2021/01/25 12:46:15;;;;;;;7.00;1.83;;;3.70;99.90;;;;;;5016236;28;20738;-88
2021/01/25 12:48:47;;;;;;;10.13;1.43;;;3.70;99.90;;;;;;5026088;28;20274;-90
2021/01/25 12:51:18;;;;;;;9.10;1.57;;;3.70;99.90;;;;;;5016002;28;20221;-90
2021/01/25 12:53:49;;;;;;;10.10;1.67;;;3.70;99.90;;;;;;5015194;28;20210;-89
2021/01/25 12:56:20;;;;;;;7.17;1.50;;;3.70;99.90;;;;;;5016078;28;20210;-88
2021/01/25 12:58:51;;;;;;;5.73;1.37;;;3.70;99.90;;;;;;5008269;28;20580;-88
2021/01/25 13:01:22;;;;;;;9.33;1.80;;;3.70;99.90;;;;;;5005297;28;20224;-89
2021/01/25 13:03:54;;;;;;;7.53;1.33;;;3.70;99.90;;;;;;5015648;28;20206;-87
2021/01/25 13:06:25;;;;;;;9.53;1.37;;;3.70;99.90;;;;;;5016443;28;20230;-88
2021/01/25 13:08:56;;;;;;;5.70;1.13;;;3.70;99.90;;;;;;5014789;28;20209;-89
2021/01/25 13:11:27;;;;;;;5.73;1.33;;;3.80;99.90;;;;;;5020127;28;20817;-87
2021/01/25 13:13:58;;;;;;;7.90;1.83;;;3.80;99.90;;;;;;5025317;28;20200;-89
2021/01/25 13:16:28;;;;;;;5.83;1.40;;;3.80;99.90;;;;;;5029637;28;20236;-88
2021/01/25 13:19:01;;;;;;;11.23;1.60;;;3.80;99.90;;;;;;5025545;28;20198;-88
2021/01/25 13:21:32;;;;;;;9.50;1.80;;;3.80;99.90;;;;;;4999029;28;20690;-88
2021/01/25 13:24:03;;;;;;;8.00;1.10;;;3.80;99.90;;;;;;5022655;28;20259;-88
2021/01/25 13:26:33;;;;;;;13.77;1.87;;;3.80;99.90;;;;;;5030116;28;20212;-89
2021/01/25 13:29:03;;;;;;;8.50;1.50;;;3.80;99.90;;;;;;5015836;28;20720;-89
2021/01/25 13:31:34;;;;;;;5.60;0.90;;;3.80;99.90;;;;;;5015534;28;20240;-86
2021/01/25 13:34:06;;;;;;;8.57;1.87;;;3.80;99.90;;;;;;5015646;28;20209;-88